Current Conditions
Overcast
Conditions



Pressure
1027.92 (hPa) - 30.35 (inHG)
Visibility

10.0 (km) - 6.2 (miles)
Temperature
2  °C
Temperature
2  °C
Dewpoint
100  %
 Humidity
Wind Speed
2.7  m/s
6  mph
10  km/h
5  kts
Wind Direction
N
45°
E
90°
135°
S
180°
225°
W
270°
315°
 80°

Due East
Airport Data
ESMX
Växjö Kronoberg Airport
Metar :ESMX 300350Z AUTO 08005KT 030V110 9999 OVC007/// 02/02 Q1028
Wed 30th November 04:50 am
Raw Metar Info
Raw METAR is the most common format in the world for the transmission of observational weather data. It is highly standardized through the International Civil Aviation Organization (ICAO), which allows it to be understood throughout most of the world.
API Info
Data Provided by
https://www.checkwx.com/weather/ESMX

Aviation Weather providing METAR, TAF, AIRMET, SIGMET and OUTLOOK Weather Reports
© Info
CSS/SVG/PHP scripts were developed by weather34 for use in the weather34 template © 2015-2022

Guide Info provided by Metar-Wikipedia